Time;durP1;ratioP1;P1;durP2;ratioP2;P2;SDS_P1;SDS_P2;PMS_P1;PMS_P2;Temp;Humidity;BMP_temperature;BMP_pressure;BME280_temperature;BME280_humidity;BME280_pressure;Samples;Min_cycle;Max_cycle;Signal;HPM_P1;HPM_P2
2021/10/03 00:01:12;;;;;;;7.55;4.97;;;12.20;90.70;;;;;;4986520;28;20114;-83
2021/10/03 00:03:40;;;;;;;5.20;4.20;;;12.20;90.70;;;;;;4986485;28;20034;-83
2021/10/03 00:06:08;;;;;;;;;;;12.30;90.40;;;;;;4987831;28;20031;-83
2021/10/03 00:08:34;;;;;;;5.73;5.07;;;12.30;90.60;;;;;;4987767;28;19914;-83
2021/10/03 00:10:59;;;;;;;5.95;4.15;;;12.10;90.60;;;;;;4983265;28;20031;-83
2021/10/03 00:13:26;;;;;;;6.60;3.95;;;12.20;90.20;;;;;;4987917;28;20050;-83
2021/10/03 00:15:53;;;;;;;7.57;4.80;;;12.10;90.00;;;;;;4992077;28;20026;-83
2021/10/03 00:18:20;;;;;;;5.25;3.92;;;12.20;90.00;;;;;;4992240;28;20037;-83
2021/10/03 00:20:46;;;;;;;6.75;4.25;;;12.20;89.90;;;;;;4992585;28;20065;-83
2021/10/03 00:23:12;;;;;;;4.32;3.80;;;12.10;89.90;;;;;;4990916;28;20030;-83
2021/10/03 00:25:38;;;;;;;4.10;3.70;;;12.00;88.80;;;;;;4988352;28;20034;-83
2021/10/03 00:28:06;;;;;;;5.55;4.03;;;11.90;89.50;;;;;;4989942;28;20385;-83
2021/10/03 00:30:32;;;;;;;4.38;3.50;;;11.90;90.30;;;;;;4991140;28;20468;-83
2021/10/03 00:32:58;;;;;;;3.90;3.50;;;11.80;90.90;;;;;;4990498;28;20077;-84
2021/10/03 00:35:24;;;;;;;4.05;3.42;;;11.80;91.00;;;;;;4990129;28;20026;-83
2021/10/03 00:37:50;;;;;;;4.68;3.45;;;11.80;91.00;;;;;;4992304;28;20393;-83
2021/10/03 00:40:15;;;;;;;6.85;3.80;;;11.70;91.10;;;;;;4992875;28;20045;-83
2021/10/03 00:42:42;;;;;;;12.65;4.38;;;11.60;91.80;;;;;;4983949;28;20041;-83
2021/10/03 00:45:10;;;;;;;4.07;3.67;;;11.60;91.00;;;;;;4987411;28;20025;-83
2021/10/03 00:47:36;;;;;;;4.88;4.22;;;11.50;91.20;;;;;;4987672;28;20378;-83
2021/10/03 00:50:04;;;;;;;5.72;4.13;;;11.40;91.50;;;;;;4991477;28;20027;-83
2021/10/03 00:52:29;;;;;;;5.00;3.60;;;11.40;91.90;;;;;;4988852;28;20121;-83
2021/10/03 00:54:55;;;;;;;4.63;3.92;;;11.40;92.60;;;;;;4990700;28;20129;-83
2021/10/03 00:57:21;;;;;;;8.05;5.32;;;11.40;92.40;;;;;;4987553;28;20863;-83
2021/10/03 00:59:47;;;;;;;6.90;5.38;;;11.40;93.00;;;;;;4993006;28;20022;-83
2021/10/03 01:02:12;;;;;;;8.50;4.80;;;11.40;93.30;;;;;;4987796;28;20030;-83
2021/10/03 01:04:38;;;;;;;7.60;4.90;;;11.50;93.40;;;;;;4988345;28;20121;-83
2021/10/03 01:07:04;;;;;;;7.28;4.65;;;11.60;93.50;;;;;;4988302;28;20038;-83
2021/10/03 01:09:29;;;;;;;9.15;5.53;;;11.60;93.40;;;;;;4989135;28;21004;-83
2021/10/03 01:11:55;;;;;;;7.45;4.88;;;11.60;93.20;;;;;;4988799;28;20560;-83
2021/10/03 01:14:22;;;;;;;7.45;4.53;;;11.60;92.60;;;;;;4988473;28;20105;-83
2021/10/03 01:16:49;;;;;;;5.57;4.57;;;11.50;91.90;;;;;;4985032;28;20110;-83
2021/10/03 01:19:16;;;;;;;6.63;4.93;;;11.40;91.60;;;;;;4988578;28;20366;-83
2021/10/03 01:21:43;;;;;;;5.70;4.28;;;11.20;92.10;;;;;;4988980;28;20046;-83
2021/10/03 01:24:08;;;;;;;4.75;3.70;;;11.20;92.50;;;;;;4986001;28;20122;-83
2021/10/03 01:26:34;;;;;;;4.30;3.40;;;11.20;92.40;;;;;;4989155;28;20461;-83
2021/10/03 01:29:00;;;;;;;4.93;3.78;;;11.20;92.30;;;;;;4988708;28;20034;-83
2021/10/03 01:31:29;;;;;;;8.35;5.38;;;11.10;92.30;;;;;;4986274;28;20030;-83
2021/10/03 01:33:57;;;;;;;9.48;5.70;;;11.10;92.80;;;;;;4987553;28;20026;-83
2021/10/03 01:36:24;;;;;;;6.75;5.28;;;11.20;93.20;;;;;;4989801;28;20509;-83
2021/10/03 01:38:50;;;;;;;8.07;5.68;;;11.30;93.50;;;;;;4985419;28;20085;-83
2021/10/03 01:41:16;;;;;;;7.65;5.30;;;11.30;93.50;;;;;;4989595;28;20038;-83
2021/10/03 01:43:42;;;;;;;8.20;5.13;;;11.30;93.60;;;;;;4986732;28;20038;-83
2021/10/03 01:46:08;;;;;;;8.50;4.93;;;11.30;93.80;;;;;;4987382;28;20050;-83
2021/10/03 01:48:34;;;;;;;8.65;5.20;;;11.40;93.60;;;;;;4987916;28;20080;-83
2021/10/03 01:51:06;;;;;;;9.40;6.15;;;11.40;93.60;;;;;;4988341;28;20117;-83
2021/10/03 01:53:45;;;;;;;6.95;5.13;;;11.30;93.60;;;;;;4986133;28;20086;-83
2021/10/03 01:56:12;;;;;;;8.70;5.68;;;11.40;93.60;;;;;;4985055;28;20039;-83
2021/10/03 01:58:53;;;;;;;7.65;4.82;;;11.40;93.50;;;;;;4988462;28;20490;-83
2021/10/03 02:01:23;;;;;;;8.10;5.13;;;11.40;93.20;;;;;;4986564;28;20041;-83
2021/10/03 02:03:49;;;;;;;6.45;4.57;;;11.40;93.20;;;;;;4985807;28;20120;-83
2021/10/03 02:06:16;;;;;;;6.32;4.82;;;11.40;93.30;;;;;;4988141;28;20092;-83
2021/10/03 02:08:42;;;;;;;6.50;4.68;;;11.40;93.30;;;;;;4985572;28;20053;-83
2021/10/03 02:11:07;;;;;;;8.98;5.55;;;11.40;93.40;;;;;;4987613;28;20042;-83
2021/10/03 02:13:33;;;;;;;9.27;5.32;;;11.40;93.50;;;;;;4990105;28;20052;-83
2021/10/03 02:16:01;;;;;;;8.15;4.90;;;11.40;93.90;;;;;;4987604;28;20034;-83
2021/10/03 02:18:36;;;;;;;10.48;5.57;;;11.40;93.50;;;;;;4984979;28;20033;-83
2021/10/03 02:21:03;;;;;;;7.25;5.45;;;11.30;93.60;;;;;;4989158;28;20084;-83
2021/10/03 02:23:29;;;;;;;7.60;5.20;;;11.40;93.50;;;;;;4985060;28;20030;-83
2021/10/03 02:25:55;;;;;;;6.80;4.65;;;11.40;93.40;;;;;;4986336;28;20035;-83
2021/10/03 02:28:24;;;;;;;8.40;5.53;;;11.30;93.40;;;;;;4985630;28;20033;-83
2021/10/03 02:30:53;;;;;;;7.55;5.40;;;11.40;93.40;;;;;;4985602;28;20089;-83
2021/10/03 02:33:20;;;;;;;7.05;5.00;;;11.40;93.20;;;;;;4988393;28;20501;-83
2021/10/03 02:35:47;;;;;;;6.43;4.47;;;11.30;93.30;;;;;;4987424;28;20027;-83
2021/10/03 02:38:17;;;;;;;6.32;4.00;;;11.20;91.40;;;;;;4985481;28;20030;-83
2021/10/03 02:40:44;;;;;;;3.95;3.47;;;11.10;90.70;;;;;;4985229;28;20030;-83
2021/10/03 02:43:11;;;;;;;5.65;4.20;;;10.70;90.70;;;;;;4988363;28;20409;-83
2021/10/03 02:45:41;;;;;;;6.65;4.40;;;10.70;91.40;;;;;;4986744;28;20038;-83
2021/10/03 02:48:07;;;;;;;5.93;4.03;;;10.80;91.70;;;;;;4986910;28;20754;-83
2021/10/03 02:50:33;;;;;;;4.72;3.70;;;10.80;91.50;;;;;;4983547;28;20116;-83
2021/10/03 02:52:59;;;;;;;4.03;3.55;;;10.70;91.10;;;;;;4999946;28;20098;-83
2021/10/03 02:55:25;;;;;;;7.18;3.72;;;10.70;91.40;;;;;;4987125;28;20084;-83
2021/10/03 02:57:50;;;;;;;4.35;3.45;;;10.60;91.40;;;;;;4985356;28;20034;-83
2021/10/03 03:00:17;;;;;;;3.65;3.22;;;10.60;91.00;;;;;;4985499;28;20027;-83
2021/10/03 03:02:42;;;;;;;5.68;3.60;;;10.40;90.40;;;;;;4984558;28;20121;-83
2021/10/03 03:05:10;;;;;;;6.20;4.20;;;10.40;91.30;;;;;;4983806;28;20572;-83
2021/10/03 03:07:36;;;;;;;7.57;4.78;;;10.30;92.40;;;;;;4987218;28;20046;-83
2021/10/03 03:10:04;;;;;;;5.60;4.00;;;10.30;93.20;;;;;;4987626;28;20034;-83
2021/10/03 03:12:30;;;;;;;5.43;3.65;;;10.40;93.40;;;;;;4988712;28;20031;-83
2021/10/03 03:14:55;;;;;;;4.45;3.35;;;10.40;92.40;;;;;;4988746;28;20034;-83
2021/10/03 03:17:23;;;;;;;5.05;3.97;;;10.20;91.00;;;;;;4983463;28;20474;-83
2021/10/03 03:19:48;;;;;;;4.72;4.18;;;10.10;92.60;;;;;;4986687;28;20037;-83
2021/10/03 03:22:14;;;;;;;4.38;3.70;;;10.20;92.40;;;;;;4988653;28;20031;-83
2021/10/03 03:24:41;;;;;;;7.47;4.07;;;10.20;92.10;;;;;;4986789;28;20030;-83
2021/10/03 03:27:07;;;;;;;4.95;3.97;;;10.10;92.30;;;;;;4987995;28;20026;-83
2021/10/03 03:29:33;;;;;;;7.03;4.63;;;10.20;93.10;;;;;;4987469;28;20036;-83
2021/10/03 03:32:00;;;;;;;23.38;3.75;;;10.20;92.90;;;;;;4985670;28;20034;-83
2021/10/03 03:34:26;;;;;;;4.57;3.08;;;10.10;90.60;;;;;;4986146;28;20037;-83
2021/10/03 03:36:52;;;;;;;3.90;3.45;;;10.10;91.60;;;;;;4990601;28;20046;-83
2021/10/03 03:39:18;;;;;;;6.55;3.90;;;9.80;92.50;;;;;;4982232;28;20059;-83
2021/10/03 03:41:43;;;;;;;6.15;3.78;;;10.00;92.80;;;;;;4986793;28;20035;-83
2021/10/03 03:44:09;;;;;;;4.03;3.15;;;10.00;92.50;;;;;;4988929;28;20125;-83
2021/10/03 03:46:35;;;;;;;5.43;3.92;;;9.90;92.70;;;;;;4985141;28;20026;-83
2021/10/03 03:49:00;;;;;;;6.22;3.30;;;9.90;92.90;;;;;;4985445;28;20031;-83
2021/10/03 03:51:26;;;;;;;5.15;3.47;;;9.90;93.00;;;;;;4987920;28;20042;-83
2021/10/03 03:53:52;;;;;;;4.68;3.47;;;9.80;92.30;;;;;;4991601;28;20085;-83
2021/10/03 03:56:17;;;;;;;7.47;4.40;;;9.80;92.90;;;;;;4991954;28;20022;-83
2021/10/03 03:58:43;;;;;;;7.15;4.38;;;9.90;93.50;;;;;;4988813;28;20030;-83
2021/10/03 04:01:09;;;;;;;6.15;4.40;;;9.90;94.20;;;;;;4990485;28;20034;-83
2021/10/03 04:03:34;;;;;;;4.72;3.55;;;9.90;93.40;;;;;;4989684;28;20030;-83
2021/10/03 04:06:00;;;;;;;5.43;4.10;;;9.90;92.40;;;;;;4991303;28;20061;-83
2021/10/03 04:08:25;;;;;;;6.50;4.38;;;9.90;92.50;;;;;;4986342;28;20117;-83
2021/10/03 04:10:52;;;;;;;6.97;4.25;;;9.90;93.80;;;;;;4989870;28;20452;-83
2021/10/03 04:13:19;;;;;;;6.55;4.57;;;10.10;94.10;;;;;;4988783;28;20038;-83
2021/10/03 04:15:45;;;;;;;4.53;3.35;;;10.10;93.10;;;;;;4990899;28;20463;-83
2021/10/03 04:18:11;;;;;;;5.50;3.67;;;10.00;91.90;;;;;;4991991;28;20031;-83
2021/10/03 04:20:37;;;;;;;5.45;3.38;;;9.90;91.80;;;;;;4987470;28;20126;-82
2021/10/03 04:23:03;;;;;;;7.70;3.78;;;9.80;92.10;;;;;;4991129;28;20082;-82
2021/10/03 04:25:29;;;;;;;3.88;3.25;;;9.80;92.00;;;;;;4990319;28;20026;-82
2021/10/03 04:27:54;;;;;;;6.75;4.25;;;9.90;91.90;;;;;;4990380;28;20030;-82
2021/10/03 04:30:20;;;;;;;4.88;3.65;;;9.90;91.90;;;;;;4990171;28;20027;-82
2021/10/03 04:32:46;;;;;;;3.38;3.08;;;9.70;91.70;;;;;;4989171;28;20034;-82
2021/10/03 04:35:11;;;;;;;4.18;3.65;;;9.80;92.00;;;;;;4992746;28;20072;-82
2021/10/03 04:37:37;;;;;;;9.13;3.92;;;9.70;91.10;;;;;;4990411;28;20046;-82
2021/10/03 04:40:05;;;;;;;4.55;3.55;;;9.60;91.20;;;;;;4985592;28;20041;-82
2021/10/03 04:42:31;;;;;;;5.15;4.00;;;9.50;91.90;;;;;;4989319;28;20026;-82
2021/10/03 04:44:56;;;;;;;5.18;3.72;;;9.50;92.20;;;;;;4986357;28;20047;-82
2021/10/03 04:47:22;;;;;;;3.75;3.35;;;9.30;91.40;;;;;;4989268;28;20026;-82
2021/10/03 04:49:49;;;;;;;4.35;3.45;;;9.30;91.50;;;;;;4983994;28;20023;-82
2021/10/03 04:52:15;;;;;;;6.03;3.72;;;9.40;92.60;;;;;;4986040;28;20026;-82
2021/10/03 04:54:41;;;;;;;5.75;3.83;;;9.40;93.10;;;;;;4987029;28;20042;-82
2021/10/03 04:57:06;;;;;;;5.75;4.03;;;9.50;93.50;;;;;;4985498;28;20019;-82
2021/10/03 04:59:32;;;;;;;4.90;3.70;;;9.60;93.50;;;;;;4988142;28;20030;-82
2021/10/03 05:01:58;;;;;;;4.63;3.63;;;9.60;93.20;;;;;;4986844;28;20030;-82
2021/10/03 05:04:25;;;;;;;5.13;3.60;;;9.50;93.00;;;;;;4985683;28;20109;-82
2021/10/03 05:06:50;;;;;;;5.80;3.45;;;9.50;93.10;;;;;;4988550;28;20066;-82
2021/10/03 05:09:16;;;;;;;7.72;4.40;;;9.50;92.90;;;;;;4986661;28;20069;-82
2021/10/03 05:11:41;;;;;;;4.95;3.65;;;9.50;93.10;;;;;;4988249;28;20350;-82
2021/10/03 05:14:07;;;;;;;4.97;3.67;;;9.50;93.00;;;;;;4988336;28;20129;-82
2021/10/03 05:16:36;;;;;;;5.70;4.00;;;9.50;93.10;;;;;;4988842;28;20019;-83
2021/10/03 05:19:03;;;;;;;4.63;3.55;;;9.50;93.50;;;;;;4988165;28;20062;-82
2021/10/03 05:21:29;;;;;;;7.05;4.00;;;9.50;93.70;;;;;;4990601;28;20049;-82
2021/10/03 05:23:55;;;;;;;5.60;3.65;;;9.60;93.60;;;;;;4988854;28;20034;-83
2021/10/03 05:26:20;;;;;;;6.40;3.85;;;9.60;93.40;;;;;;4986464;28;20030;-82
2021/10/03 05:28:46;;;;;;;4.13;3.33;;;9.60;93.30;;;;;;4987601;28;20503;-83
2021/10/03 05:31:12;;;;;;;7.45;4.13;;;9.60;93.30;;;;;;4986794;28;20117;-83
2021/10/03 05:33:39;;;;;;;4.68;3.60;;;9.60;93.20;;;;;;4987789;28;20121;-83
2021/10/03 05:36:05;;;;;;;5.80;3.75;;;9.70;93.70;;;;;;4984854;28;20049;-82
2021/10/03 05:38:31;;;;;;;5.32;3.80;;;9.70;93.60;;;;;;4988364;28;20371;-82
2021/10/03 05:40:56;;;;;;;6.15;4.13;;;9.60;93.60;;;;;;4990619;28;20027;-82
2021/10/03 05:43:22;;;;;;;5.25;3.60;;;9.70;93.60;;;;;;4984922;28;20042;-83
2021/10/03 05:45:48;;;;;;;5.65;3.65;;;9.70;93.60;;;;;;4987630;28;20030;-83
2021/10/03 05:48:13;;;;;;;5.57;3.88;;;9.70;93.50;;;;;;4988394;28;20027;-83
2021/10/03 05:50:39;;;;;;;7.72;4.03;;;9.70;93.10;;;;;;4986741;28;20125;-82
2021/10/03 05:53:07;;;;;;;5.45;3.65;;;9.80;93.30;;;;;;4986795;28;20429;-82
2021/10/03 05:55:32;;;;;;;5.82;3.70;;;9.80;93.20;;;;;;4988995;28;20073;-82
2021/10/03 05:57:58;;;;;;;6.53;3.90;;;9.90;93.00;;;;;;4987156;28;20493;-82
2021/10/03 06:00:24;;;;;;;5.40;3.60;;;9.80;93.20;;;;;;4979132;28;20080;-82
2021/10/03 06:02:49;;;;;;;5.57;3.75;;;9.80;92.90;;;;;;4986476;28;20524;-82
2021/10/03 06:05:15;;;;;;;5.30;3.53;;;9.80;93.00;;;;;;4988937;28;20472;-83
2021/10/03 06:07:41;;;;;;;6.18;4.63;;;9.80;93.20;;;;;;4990776;28;20053;-83
2021/10/03 06:10:07;;;;;;;5.15;3.90;;;9.90;93.40;;;;;;4990102;28;20037;-83
2021/10/03 06:12:33;;;;;;;4.97;3.42;;;9.90;93.50;;;;;;4983640;28;20038;-83
2021/10/03 06:14:59;;;;;;;4.85;3.20;;;10.00;93.50;;;;;;4988469;28;20165;-83
2021/10/03 06:17:25;;;;;;;3.45;3.13;;;10.00;93.10;;;;;;4984982;28;20541;-83
2021/10/03 06:19:50;;;;;;;5.47;3.78;;;9.90;92.70;;;;;;4988231;28;20030;-83
2021/10/03 06:22:21;;;;;;;6.65;3.88;;;9.90;93.00;;;;;;4984233;28;20074;-83
2021/10/03 06:24:46;;;;;;;7.07;3.80;;;9.90;93.30;;;;;;4989380;28;20045;-83
2021/10/03 06:27:12;;;;;;;5.57;3.80;;;9.90;93.40;;;;;;4990244;28;20022;-83
2021/10/03 06:29:38;;;;;;;6.50;4.13;;;10.00;93.50;;;;;;4988238;28;20112;-83
2021/10/03 06:32:04;;;;;;;7.03;4.82;;;10.00;93.50;;;;;;5000702;28;20423;-83
2021/10/03 06:34:29;;;;;;;5.45;4.13;;;10.10;93.40;;;;;;4989193;28;20038;-83
2021/10/03 06:36:55;;;;;;;5.10;3.78;;;10.00;93.50;;;;;;4986356;28;20037;-83
2021/10/03 06:39:21;;;;;;;5.43;4.03;;;10.10;93.70;;;;;;4987894;28;20057;-83
2021/10/03 06:41:46;;;;;;;4.93;3.75;;;10.10;93.70;;;;;;4985424;28;20081;-83
2021/10/03 06:44:13;;;;;;;8.55;4.38;;;10.20;93.70;;;;;;4985376;28;20485;-83
2021/10/03 06:46:39;;;;;;;6.35;4.30;;;10.30;93.70;;;;;;4985514;28;20038;-83
2021/10/03 06:49:05;;;;;;;7.10;4.20;;;10.20;93.80;;;;;;4990466;28;20485;-83
2021/10/03 06:51:31;;;;;;;4.20;3.80;;;10.30;93.90;;;;;;4983349;28;20051;-83
2021/10/03 06:53:56;;;;;;;6.65;3.90;;;10.30;94.20;;;;;;4985349;28;20030;-83
2021/10/03 06:56:23;;;;;;;6.65;4.13;;;10.40;94.30;;;;;;4980604;28;20027;-83
2021/10/03 06:58:48;;;;;;;4.53;3.75;;;10.50;95.10;;;;;;4984596;28;20027;-83
2021/10/03 07:01:15;;;;;;;5.75;3.97;;;10.50;95.00;;;;;;4988321;28;20036;-83
2021/10/03 07:03:41;;;;;;;5.03;3.80;;;10.70;95.30;;;;;;4986847;28;20074;-83
2021/10/03 07:06:07;;;;;;;4.72;3.90;;;10.90;96.60;;;;;;4988102;28;20038;-83
2021/10/03 07:08:33;;;;;;;6.60;3.90;;;11.00;95.90;;;;;;4988221;28;20047;-83
2021/10/03 07:10:59;;;;;;;6.25;4.25;;;11.20;96.30;;;;;;4986294;28;20115;-83
2021/10/03 07:13:25;;;;;;;6.22;4.05;;;11.40;96.10;;;;;;4984924;28;20047;-83
2021/10/03 07:15:51;;;;;;;4.97;3.97;;;11.50;96.10;;;;;;4988093;28;20027;-83
2021/10/03 07:18:16;;;;;;;5.85;3.92;;;11.70;96.00;;;;;;4985834;28;20400;-83
2021/10/03 07:20:42;;;;;;;6.05;3.70;;;11.70;95.90;;;;;;4988197;28;20054;-83
2021/10/03 07:23:07;;;;;;;5.60;3.58;;;11.90;95.40;;;;;;4992404;28;20508;-83
2021/10/03 07:25:33;;;;;;;7.72;3.92;;;12.00;95.00;;;;;;4984875;28;20057;-83
2021/10/03 07:27:59;;;;;;;5.70;3.92;;;12.10;94.40;;;;;;5008124;28;20061;-83
2021/10/03 07:30:25;;;;;;;4.80;3.80;;;12.20;94.80;;;;;;4991106;28;20030;-83
2021/10/03 07:32:51;;;;;;;5.20;3.75;;;12.30;94.50;;;;;;4990846;28;20038;-83
2021/10/03 07:35:16;;;;;;;5.97;3.60;;;12.30;94.50;;;;;;4990545;28;20726;-83
2021/10/03 07:37:42;;;;;;;5.25;3.63;;;12.50;94.90;;;;;;4990752;28;20421;-83
2021/10/03 07:40:08;;;;;;;5.50;3.50;;;12.50;94.70;;;;;;4993298;28;20038;-83
2021/10/03 07:42:34;;;;;;;6.72;4.50;;;12.80;95.30;;;;;;4990862;28;20085;-83
2021/10/03 07:45:00;;;;;;;7.18;4.05;;;12.90;95.30;;;;;;4989760;28;20485;-83
2021/10/03 07:47:26;;;;;;;4.72;3.55;;;13.10;94.60;;;;;;4990038;28;20030;-83
2021/10/03 07:49:51;;;;;;;6.28;4.05;;;13.30;94.30;;;;;;4988838;28;20035;-83
2021/10/03 07:52:17;;;;;;;5.43;3.45;;;13.40;93.90;;;;;;4986311;28;20489;-83
2021/10/03 07:54:42;;;;;;;5.55;4.18;;;13.40;93.40;;;;;;4983125;28;20022;-83
2021/10/03 07:57:08;;;;;;;4.90;3.90;;;13.60;93.70;;;;;;4988337;28;20191;-83
2021/10/03 07:59:35;;;;;;;5.90;3.97;;;13.70;94.00;;;;;;4999284;28;20026;-83
2021/10/03 08:02:01;;;;;;;4.55;3.47;;;13.80;94.00;;;;;;4983705;28;20551;-83
2021/10/03 08:04:27;;;;;;;4.85;3.67;;;14.00;93.20;;;;;;4987628;28;20027;-83
2021/10/03 08:06:52;;;;;;;4.05;3.17;;;14.10;93.30;;;;;;5003605;28;20493;-82
2021/10/03 08:09:18;;;;;;;5.05;3.63;;;14.10;92.60;;;;;;4990264;28;20052;-83
2021/10/03 08:11:43;;;;;;;5.22;3.80;;;14.30;92.20;;;;;;4980786;28;20043;-83
2021/10/03 08:14:09;;;;;;;5.25;2.70;;;14.30;91.90;;;;;;4987000;28;20156;-83
2021/10/03 08:16:35;;;;;;;3.28;2.88;;;14.40;91.90;;;;;;4988192;28;20489;-84
2021/10/03 08:19:00;;;;;;;5.15;2.92;;;14.50;91.50;;;;;;4984983;28;21043;-83
2021/10/03 08:21:28;;;;;;;4.65;2.72;;;14.70;91.30;;;;;;4989831;28;20034;-83
2021/10/03 08:23:54;;;;;;;4.47;3.00;;;14.90;90.60;;;;;;4985176;28;20610;-83
2021/10/03 08:26:20;;;;;;;4.00;2.70;;;15.10;89.80;;;;;;4988076;28;20216;-83
2021/10/03 08:28:45;;;;;;;3.65;2.90;;;15.40;88.80;;;;;;4986852;28;20437;-83
2021/10/03 08:31:11;;;;;;;3.67;2.67;;;15.50;87.50;;;;;;4988233;28;20027;-83
2021/10/03 08:33:38;;;;;;;3.85;2.72;;;15.70;85.60;;;;;;4988424;28;20036;-83
2021/10/03 08:36:04;;;;;;;2.53;2.28;;;15.90;84.60;;;;;;4989501;28;20477;-83
2021/10/03 08:38:30;;;;;;;2.92;2.60;;;16.00;82.40;;;;;;4986906;28;20076;-83
2021/10/03 08:40:56;;;;;;;2.15;1.98;;;16.10;83.60;;;;;;4988717;28;20026;-83
2021/10/03 08:43:22;;;;;;;2.08;1.83;;;16.20;82.60;;;;;;4987792;28;20107;-83
2021/10/03 08:45:49;;;;;;;2.53;2.33;;;16.40;80.80;;;;;;4988275;28;20038;-83
2021/10/03 08:48:16;;;;;;;2.93;2.20;;;16.70;82.10;;;;;;4991281;28;20058;-83
2021/10/03 08:50:44;;;;;;;2.17;1.70;;;16.80;80.00;;;;;;4987670;28;20038;-83
2021/10/03 08:53:10;;;;;;;;;;;16.90;80.10;;;;;;4990414;28;20068;-83
2021/10/03 08:55:36;;;;;;;3.05;2.17;;;17.00;78.70;;;;;;4991172;28;20000;-83
2021/10/03 08:58:02;;;;;;;2.65;2.10;;;17.10;79.60;;;;;;4990513;28;20105;-83
2021/10/03 09:00:28;;;;;;;4.18;2.00;;;17.10;78.30;;;;;;4990028;28;20022;-83
2021/10/03 09:03:00;;;;;;;2.78;2.05;;;17.10;79.30;;;;;;4993714;28;20197;-83
2021/10/03 09:05:28;;;;;;;2.67;2.30;;;17.20;79.20;;;;;;4988767;28;20034;-83
2021/10/03 09:08:20;;;;;;;2.65;2.05;;;17.30;79.40;;;;;;4991632;28;20509;-83
2021/10/03 09:11:01;;;;;;;1.95;1.75;;;17.50;79.40;;;;;;4990103;28;20061;-83
2021/10/03 09:13:30;;;;;;;2.92;2.20;;;17.60;77.60;;;;;;5011467;28;20034;-83
2021/10/03 09:16:16;;;;;;;3.65;2.10;;;17.80;76.30;;;;;;5008269;28;20504;-83
2021/10/03 09:18:46;;;;;;;2.00;1.80;;;17.90;77.80;;;;;;4992459;28;20915;-83
2021/10/03 09:21:34;;;;;;;3.25;1.60;;;18.10;73.30;;;;;;4993805;28;20104;-83
2021/10/03 09:24:05;;;;;;;2.67;1.80;;;18.20;72.90;;;;;;4996247;28;20033;-83
2021/10/03 09:26:32;;;;;;;2.80;1.90;;;18.30;74.10;;;;;;4995198;28;20039;-83
2021/10/03 09:28:58;;;;;;;2.13;1.90;;;18.40;71.40;;;;;;5003624;28;20065;-83
2021/10/03 09:31:24;;;;;;;2.40;2.17;;;18.50;71.60;;;;;;4992596;28;20295;-84
2021/10/03 09:33:53;;;;;;;1.80;1.70;;;18.60;72.60;;;;;;4994224;28;20129;-84
2021/10/03 09:36:33;;;;;;;2.00;1.80;;;18.60;72.80;;;;;;5003385;28;20080;-84
2021/10/03 09:39:01;;;;;;;1.80;1.70;;;18.70;74.80;;;;;;4993659;28;20050;-84
2021/10/03 09:41:30;;;;;;;1.95;1.75;;;19.00;72.10;;;;;;4992495;28;20870;-83
2021/10/03 09:44:06;;;;;;;2.60;1.60;;;18.90;72.50;;;;;;4993758;28;20389;-84
2021/10/03 09:46:40;;;;;;;1.88;1.67;;;19.00;72.00;;;;;;4993495;28;20560;-84
2021/10/03 09:49:18;;;;;;;2.05;1.70;;;19.20;70.10;;;;;;4993439;28;20057;-84
2021/10/03 09:51:49;;;;;;;2.45;1.95;;;19.30;70.20;;;;;;4988787;28;20038;-84
2021/10/03 09:54:17;;;;;;;3.45;1.80;;;19.30;70.40;;;;;;4994971;28;20080;-84
2021/10/03 09:56:45;;;;;;;2.80;1.65;;;19.40;70.10;;;;;;4989958;28;20046;-84
2021/10/03 09:59:11;;;;;;;1.88;1.63;;;19.40;69.40;;;;;;4991232;28;20029;-84
2021/10/03 10:01:44;;;;;;;2.45;1.98;;;19.50;69.20;;;;;;4990267;28;20100;-84
2021/10/03 10:04:10;;;;;;;2.35;2.08;;;19.70;69.60;;;;;;4990760;28;20077;-84
2021/10/03 10:06:46;;;;;;;3.47;1.70;;;19.70;70.40;;;;;;4994190;28;20038;-83
2021/10/03 10:09:18;;;;;;;4.18;1.80;;;19.80;68.60;;;;;;4992786;28;20071;-84
2021/10/03 10:11:55;;;;;;;6.20;2.00;;;19.80;69.20;;;;;;5013089;28;20042;-83
2021/10/03 10:14:40;;;;;;;3.75;1.80;;;20.00;70.00;;;;;;4993179;28;20026;-83
2021/10/03 10:17:26;;;;;;;2.00;1.58;;;20.00;68.60;;;;;;5008485;28;20107;-83
2021/10/03 10:19:55;;;;;;;2.20;1.65;;;20.00;68.00;;;;;;4994546;28;20097;-84
2021/10/03 10:22:29;;;;;;;2.10;1.80;;;20.00;67.50;;;;;;4992694;28;20523;-83
2021/10/03 10:24:59;;;;;;;2.50;1.70;;;20.00;67.00;;;;;;4996435;28;20037;-83
2021/10/03 10:27:25;;;;;;;1.73;1.63;;;20.10;67.70;;;;;;4996607;28;20117;-83
2021/10/03 10:29:53;;;;;;;3.83;1.85;;;20.10;67.30;;;;;;5001709;28;20161;-83
2021/10/03 10:32:24;;;;;;;2.47;2.00;;;20.20;67.30;;;;;;5001945;28;20035;-83
2021/10/03 10:35:20;;;;;;;1.80;1.65;;;20.20;66.20;;;;;;4990721;28;20065;-83
2021/10/03 10:37:54;;;;;;;2.88;1.80;;;20.30;64.50;;;;;;4992329;28;20030;-83
2021/10/03 10:40:25;;;;;;;2.45;1.60;;;20.40;66.30;;;;;;4994592;28;20392;-83
2021/10/03 10:42:55;;;;;;;2.25;1.70;;;20.50;66.50;;;;;;4991184;28;20022;-81
2021/10/03 10:45:27;;;;;;;3.00;1.73;;;20.60;64.80;;;;;;4995685;28;20035;-81
2021/10/03 10:48:08;;;;;;;1.92;1.73;;;20.70;64.70;;;;;;5000460;28;20045;-80
2021/10/03 10:50:49;;;;;;;3.38;1.70;;;20.80;62.30;;;;;;5003912;28;20681;-84
2021/10/03 10:53:28;;;;;;;1.70;1.60;;;20.90;63.80;;;;;;4991781;28;20466;-84
2021/10/03 10:56:30;;;;;;;1.95;1.75;;;21.00;60.00;;;;;;4994100;28;20066;-84
2021/10/03 10:59:01;;;;;;;1.98;1.55;;;21.00;60.00;;;;;;4984474;28;20041;-84
2021/10/03 11:01:30;;;;;;;3.28;1.67;;;21.10;61.60;;;;;;4993834;28;20034;-85
2021/10/03 11:04:05;;;;;;;2.10;1.70;;;21.10;59.80;;;;;;4996656;28;20481;-84
2021/10/03 11:06:31;;;;;;;1.58;1.48;;;21.10;60.90;;;;;;4993198;28;20498;-84
2021/10/03 11:08:57;;;;;;;2.70;1.75;;;21.20;61.50;;;;;;4996400;28;20034;-85
2021/10/03 11:11:31;;;;;;;1.40;1.30;;;21.30;61.00;;;;;;5014504;28;20049;-85
2021/10/03 11:14:06;;;;;;;1.67;1.55;;;21.40;59.90;;;;;;4998265;28;20114;-85
2021/10/03 11:16:39;;;;;;;1.75;1.65;;;21.50;60.70;;;;;;5010223;28;20461;-84
2021/10/03 11:19:14;;;;;;;2.40;1.80;;;21.70;58.80;;;;;;4993531;28;20118;-85
2021/10/03 11:21:58;;;;;;;1.60;1.50;;;21.70;58.90;;;;;;4994604;28;20034;-85
2021/10/03 11:24:30;;;;;;;1.77;1.67;;;21.80;59.40;;;;;;5007743;28;20115;-85
2021/10/03 11:27:00;;;;;;;4.03;1.95;;;21.70;58.00;;;;;;4994443;28;20564;-85
2021/10/03 11:29:28;;;;;;;1.88;1.52;;;21.80;57.60;;;;;;4996510;28;20062;-84
2021/10/03 11:31:57;;;;;;;1.70;1.60;;;21.60;58.00;;;;;;4994853;28;20121;-84
2021/10/03 11:34:37;;;;;;;2.13;1.60;;;21.60;57.40;;;;;;4999805;28;20035;-85
2021/10/03 11:37:06;;;;;;;2.22;1.67;;;21.60;58.80;;;;;;4996907;28;20351;-85
2021/10/03 11:39:40;;;;;;;2.08;1.60;;;21.50;56.30;;;;;;4990620;28;20054;-81
2021/10/03 11:42:16;;;;;;;1.98;1.70;;;21.50;58.60;;;;;;4996220;28;20034;-84
2021/10/03 11:44:45;;;;;;;1.63;1.33;;;21.70;59.50;;;;;;4982049;28;20039;-83
2021/10/03 11:47:13;;;;;;;1.55;1.45;;;21.70;58.80;;;;;;4980000;28;20041;-84
2021/10/03 11:49:42;;;;;;;1.75;1.60;;;21.80;59.90;;;;;;4994178;28;20035;-84
2021/10/03 11:52:13;;;;;;;2.95;1.63;;;21.80;59.70;;;;;;4997193;28;20025;-83
2021/10/03 11:54:47;;;;;;;3.53;1.70;;;21.80;59.50;;;;;;4997533;28;20537;-86
2021/10/03 11:57:27;;;;;;;2.42;1.88;;;21.80;60.00;;;;;;5003098;28;20030;-84
2021/10/03 12:00:13;;;;;;;2.45;1.60;;;21.90;60.00;;;;;;4995953;28;20026;-85
2021/10/03 12:02:43;;;;;;;2.90;1.77;;;21.90;59.60;;;;;;4992542;28;20084;-84
2021/10/03 12:05:11;;;;;;;3.22;1.90;;;21.90;60.00;;;;;;5001338;28;20023;-84
2021/10/03 12:07:37;;;;;;;1.85;1.75;;;21.90;58.00;;;;;;4986970;28;20050;-84
2021/10/03 12:10:14;;;;;;;2.75;1.88;;;22.00;59.00;;;;;;4989621;28;20563;-81
2021/10/03 12:13:00;;;;;;;1.70;1.60;;;22.00;58.90;;;;;;4995650;28;20038;-86
2021/10/03 12:15:46;;;;;;;2.85;1.83;;;22.00;61.00;;;;;;4986587;28;20023;-86
2021/10/03 12:18:31;;;;;;;2.38;1.80;;;22.20;60.00;;;;;;4994747;28;20022;-85
2021/10/03 12:21:01;;;;;;;1.90;1.70;;;22.30;59.20;;;;;;4995835;28;20461;-84
2021/10/03 12:23:41;;;;;;;2.28;1.92;;;22.50;57.80;;;;;;5000222;28;20119;-86
2021/10/03 12:26:15;;;;;;;1.75;1.65;;;22.40;56.40;;;;;;5007672;28;20492;-83
2021/10/03 12:29:09;;;;;;;1.90;1.70;;;22.40;56.30;;;;;;4995349;28;20053;-84
2021/10/03 12:31:39;;;;;;;2.65;1.73;;;22.40;56.90;;;;;;4996975;28;20034;-85
2021/10/03 12:34:13;;;;;;;1.92;1.67;;;22.40;55.20;;;;;;4992933;28;20030;-85
2021/10/03 12:36:40;;;;;;;2.17;1.67;;;22.40;54.70;;;;;;4991861;28;20113;-85
2021/10/03 12:39:07;;;;;;;3.25;1.63;;;22.50;54.30;;;;;;4988894;28;20482;-85
2021/10/03 12:41:33;;;;;;;1.60;1.50;;;22.40;54.30;;;;;;4992432;28;20038;-83
2021/10/03 12:44:02;;;;;;;2.05;1.65;;;22.50;56.40;;;;;;4991607;28;20056;-84
2021/10/03 12:46:27;;;;;;;2.30;1.52;;;22.50;54.70;;;;;;4991210;28;20018;-85
2021/10/03 12:48:53;;;;;;;3.53;1.70;;;22.50;54.20;;;;;;4998402;28;20037;-83
2021/10/03 12:51:20;;;;;;;4.70;2.80;;;22.50;53.70;;;;;;4991667;28;20022;-84
2021/10/03 12:53:47;;;;;;;2.50;2.07;;;22.50;55.70;;;;;;4993016;28;20530;-85
2021/10/03 12:56:13;;;;;;;2.90;2.08;;;22.60;54.80;;;;;;4994906;28;20018;-85